Time;durP1;ratioP1;P1;durP2;ratioP2;P2;SDS_P1;SDS_P2;PMS_P1;PMS_P2;Temp;Humidity;BMP_temperature;BMP_pressure;BME280_temperature;BME280_humidity;BME280_pressure;Samples;Min_cycle;Max_cycle;Signal;HPM_P1;HPM_P2
2023/02/22 00:00:28;;;;;;;2.22;2.03;;;;;;;;;;5014836;28;20199;-85
2023/02/22 00:02:58;;;;;;;3.13;2.83;;;;;;;;;;5015139;28;20332;-85
2023/02/22 00:05:30;;;;;;;3.95;2.70;;;;;;;;;;5015104;28;20214;-85
2023/02/22 00:07:59;;;;;;;3.10;2.83;;;;;;;;;;5015592;28;20194;-86
2023/02/22 00:10:27;;;;;;;3.58;3.28;;;;;;;;;;5014491;28;20764;-86
2023/02/22 00:12:56;;;;;;;3.22;2.92;;;;;;;;;;5014878;28;20746;-85
2023/02/22 00:15:27;;;;;;;4.50;3.90;;;;;;;;;;5014901;28;20203;-85
2023/02/22 00:17:55;;;;;;;4.25;3.80;;;;;;;;;;5014740;28;20191;-85
2023/02/22 00:20:24;;;;;;;3.58;3.22;;;;;;;;;;5014592;28;20203;-85
2023/02/22 00:22:53;;;;;;;5.93;4.53;;;;;;;;;;5014714;28;20219;-85
2023/02/22 00:25:22;;;;;;;5.50;3.10;;;;;;;;;;5014585;28;20282;-85
2023/02/22 00:27:51;;;;;;;5.63;3.90;;;;;;;;;;5013855;28;20198;-85
2023/02/22 00:30:21;;;;;;;3.58;3.08;;;;;;;;;;5014003;28;20233;-86
2023/02/22 00:32:51;;;;;;;6.15;4.50;;;;;;;;;;5014682;28;20317;-85
2023/02/22 00:35:22;;;;;;;5.50;4.63;;;;;;;;;;5014600;28;20294;-86
2023/02/22 00:37:50;;;;;;;6.13;4.63;;;;;;;;;;5014478;28;20224;-85
2023/02/22 00:40:22;;;;;;;5.47;4.97;;;;;;;;;;5014016;28;20634;-85
2023/02/22 00:42:49;;;;;;;5.75;5.05;;;;;;;;;;5014313;28;20655;-86
2023/02/22 00:45:21;;;;;;;7.10;5.70;;;;;;;;;;5014573;28;20571;-85
2023/02/22 00:47:50;;;;;;;7.18;6.13;;;;;;;;;;5014785;28;20266;-86
2023/02/22 00:50:19;;;;;;;6.43;4.53;;;;;;;;;;5014466;28;20266;-86
2023/02/22 00:52:47;;;;;;;7.88;6.45;;;;;;;;;;5014436;28;20219;-85
2023/02/22 00:55:19;;;;;;;6.70;5.47;;;;;;;;;;5014499;28;20199;-85
2023/02/22 00:57:47;;;;;;;5.82;4.88;;;;;;;;;;5014382;28;20230;-85
2023/02/22 01:00:20;;;;;;;7.78;5.28;;;;;;;;;;5013998;28;20285;-86
2023/02/22 01:02:49;;;;;;;9.52;6.82;;;;;;;;;;5013993;28;20226;-85
2023/02/22 01:05:19;;;;;;;6.82;5.90;;;;;;;;;;5014276;28;20203;-85
2023/02/22 01:07:48;;;;;;;7.47;6.20;;;;;;;;;;5014212;28;20213;-86
2023/02/22 01:10:18;;;;;;;8.15;6.57;;;;;;;;;;5014122;28;20254;-86
2023/02/22 01:12:45;;;;;;;7.63;6.53;;;;;;;;;;5014261;28;20266;-86
2023/02/22 01:15:14;;;;;;;7.25;5.80;;;;;;;;;;5014085;28;20748;-85
2023/02/22 01:17:42;;;;;;;8.45;6.65;;;;;;;;;;5014225;28;20298;-86
2023/02/22 01:20:12;;;;;;;10.85;6.97;;;;;;;;;;5013614;28;20207;-85
2023/02/22 01:22:41;;;;;;;7.28;6.13;;;;;;;;;;5014079;28;20225;-85
2023/02/22 01:25:09;;;;;;;8.35;6.40;;;;;;;;;;5013726;28;20199;-86
2023/02/22 01:27:38;;;;;;;8.05;6.07;;;;;;;;;;5014420;28;20199;-87
2023/02/22 01:30:08;;;;;;;8.77;6.35;;;;;;;;;;5013900;28;20317;-86
2023/02/22 01:32:36;;;;;;;9.40;6.55;;;;;;;;;;5014385;28;20658;-86
2023/02/22 01:35:07;;;;;;;7.80;6.13;;;;;;;;;;5014689;28;20290;-86
2023/02/22 01:37:36;;;;;;;11.75;7.50;;;;;;;;;;5015493;28;20187;-86
2023/02/22 01:40:07;;;;;;;9.45;7.10;;;;;;;;;;5018374;28;20541;-86
2023/02/22 01:42:34;;;;;;;10.13;6.63;;;;;;;;;;5018726;28;20274;-86
2023/02/22 01:45:57;;;;;;;9.85;6.72;;;;;;;;;;5018755;28;20310;-86
2023/02/22 01:48:36;;;;;;;8.20;6.40;;;;;;;;;;4971708;28;20289;-86
2023/02/22 01:51:09;;;;;;;8.88;6.85;;;;;;;;;;5018329;28;20211;-87
2023/02/22 01:53:44;;;;;;;9.20;6.80;;;;;;;;;;5018286;28;20261;-87
2023/02/22 01:56:12;;;;;;;13.65;8.40;;;;;;;;;;5017707;28;20274;-86
2023/02/22 01:58:42;;;;;;;9.23;7.00;;;;;;;;;;5017740;28;20679;-86
2023/02/22 02:01:10;;;;;;;9.63;6.95;;;;;;;;;;5018614;28;20207;-86
2023/02/22 02:03:39;;;;;;;11.68;8.13;;;;;;;;;;5018211;28;20247;-86
2023/02/22 02:06:13;;;;;;;13.13;7.78;;;;;;;;;;5017964;28;20242;-86
2023/02/22 02:08:50;;;;;;;11.52;7.50;;;;;;;;;;5017653;28;20198;-86
2023/02/22 02:11:24;;;;;;;11.77;8.90;;;;;;;;;;5018444;28;20594;-87
2023/02/22 02:13:53;;;;;;;9.68;6.80;;;;;;;;;;5017830;28;20226;-86
2023/02/22 02:16:21;;;;;;;12.93;7.60;;;;;;;;;;5017554;28;20310;-86
2023/02/22 02:18:49;;;;;;;12.60;9.05;;;;;;;;;;5017520;28;20291;-87
2023/02/22 02:22:24;;;;;;;8.23;7.15;;;;;;;;;;5017167;28;20286;-86
2023/02/22 02:25:44;;;;;;;7.80;6.07;;;;;;;;;;4975169;28;20737;-85
2023/02/22 02:28:40;;;;;;;6.10;4.82;;;;;;;;;;4976818;28;20633;-86
2023/02/22 02:31:56;;;;;;;11.85;7.72;;;;;;;;;;5017359;28;20228;-86
2023/02/22 02:34:31;;;;;;;9.23;7.53;;;;;;;;;;5000361;28;20286;-86
2023/02/22 02:37:05;;;;;;;11.40;8.75;;;;;;;;;;5017762;28;20574;-86
2023/02/22 02:39:39;;;;;;;10.57;7.38;;;;;;;;;;5017788;28;20202;-87
2023/02/22 02:42:10;;;;;;;8.65;7.00;;;;;;;;;;5017222;28;20223;-86
2023/02/22 02:44:44;;;;;;;8.20;6.20;;;;;;;;;;5017295;28;20243;-86
2023/02/22 02:47:15;;;;;;;9.65;7.00;;;;;;;;;;5016584;28;20666;-85
2023/02/22 02:49:48;;;;;;;9.55;6.65;;;;;;;;;;5016438;28;20286;-87
2023/02/22 02:52:18;;;;;;;10.07;7.82;;;;;;;;;;5017560;28;20227;-87
2023/02/22 02:54:47;;;;;;;9.32;7.45;;;;;;;;;;5017356;28;20207;-86
2023/02/22 02:57:15;;;;;;;9.15;6.72;;;;;;;;;;5016952;28;20294;-85
2023/02/22 02:59:42;;;;;;;8.30;6.38;;;;;;;;;;5016273;28;20235;-85
2023/02/22 03:02:33;;;;;;;7.10;6.07;;;;;;;;;;5016573;28;20258;-86
2023/02/22 03:05:18;;;;;;;8.48;5.97;;;;;;;;;;5016448;28;20214;-86
2023/02/22 03:07:52;;;;;;;8.25;6.70;;;;;;;;;;5016390;28;20187;-86
2023/02/22 03:10:37;;;;;;;8.10;6.32;;;;;;;;;;5016284;28;20211;-85
2023/02/22 03:13:14;;;;;;;7.43;5.85;;;;;;;;;;5016548;28;20223;-85
2023/02/22 03:15:52;;;;;;;9.45;6.20;;;;;;;;;;5016307;28;20199;-85
2023/02/22 03:18:27;;;;;;;8.52;6.95;;;;;;;;;;5015981;28;20217;-86
2023/02/22 03:21:03;;;;;;;9.52;6.95;;;;;;;;;;5016689;28;20229;-85
2023/02/22 03:23:35;;;;;;;8.07;5.97;;;;;;;;;;5016046;28;20260;-86
2023/02/22 03:26:07;;;;;;;8.70;6.38;;;;;;;;;;5016503;28;20199;-86
2023/02/22 03:28:38;;;;;;;7.65;6.32;;;;;;;;;;5015787;28;20184;-86
2023/02/22 03:31:09;;;;;;;8.38;6.88;;;;;;;;;;5016192;28;20222;-86
2023/02/22 03:33:42;;;;;;;7.90;6.28;;;;;;;;;;5016197;28;20234;-86
2023/02/22 03:36:16;;;;;;;7.03;6.30;;;;;;;;;;5016349;28;20613;-86
2023/02/22 03:38:45;;;;;;;8.30;7.00;;;;;;;;;;5014960;28;20206;-84
2023/02/22 03:41:15;;;;;;;6.82;5.65;;;;;;;;;;5016135;28;20585;-86
2023/02/22 03:43:46;;;;;;;7.53;6.43;;;;;;;;;;5016076;28;20828;-86
2023/02/22 03:46:30;;;;;;;7.03;5.65;;;;;;;;;;5078556;22;20229;-86
2023/02/22 03:49:09;;;;;;;7.85;6.00;;;;;;;;;;5052795;28;20253;-86
2023/02/22 03:51:49;;;;;;;9.98;7.78;;;;;;;;;;5053516;28;20278;-87
2023/02/22 03:54:54;;;;;;;7.80;6.45;;;;;;;;;;5053903;28;20205;-87
2023/02/22 03:57:57;;;;;;;8.73;6.80;;;;;;;;;;5053238;28;20221;-85
2023/02/22 04:01:06;;;;;;;8.20;6.43;;;;;;;;;;5047269;28;20221;-86
2023/02/22 04:03:56;;;;;;;9.10;6.75;;;;;;;;;;5050031;28;20267;-87
2023/02/22 04:09:47;;;;;;;9.30;7.38;;;;;;;;;;5050772;28;20221;-86
2023/02/22 04:12:31;;;;;;;10.10;8.02;;;;;;;;;;5052882;28;20237;-86
2023/02/22 04:18:04;;;;;;;11.63;8.45;;;;;;;;;;5052241;28;20228;-87
2023/02/22 04:20:55;;;;;;;11.32;7.60;;;;;;;;;;5053666;28;20585;-88
2023/02/22 04:23:33;;;;;;;10.75;8.10;;;;;;;;;;5053097;28;20623;-87
2023/02/22 04:28:54;;;;;;;11.48;8.25;;;;;;;;;;5049314;28;20279;-86
2023/02/22 04:31:29;;;;;;;9.00;6.82;;;;;;;;;;5050995;28;20278;-86
2023/02/22 04:34:05;;;;;;;10.90;8.23;;;;;;;;;;5052907;28;20197;-86
2023/02/22 04:36:41;;;;;;;8.35;7.50;;;;;;;;;;5052582;28;20209;-87
2023/02/22 04:39:24;;;;;;;8.60;7.22;;;;;;;;;;5051986;28;20260;-87
2023/02/22 04:41:56;;;;;;;8.55;7.53;;;;;;;;;;5052654;28;20225;-87
2023/02/22 04:44:24;;;;;;;10.45;7.93;;;;;;;;;;5052567;28;20232;-87
2023/02/22 04:46:51;;;;;;;9.32;7.90;;;;;;;;;;5052359;28;20212;-87
2023/02/22 04:49:19;;;;;;;9.10;7.43;;;;;;;;;;5051587;28;20623;-86
2023/02/22 04:51:59;;;;;;;7.78;6.47;;;;;;;;;;5051607;28;20608;-87
2023/02/22 04:54:26;;;;;;;8.63;6.63;;;;;;;;;;5052976;28;20197;-87
2023/02/22 04:56:56;;;;;;;9.27;7.00;;;;;;;;;;5052005;28;20236;-87
2023/02/22 04:59:24;;;;;;;11.43;8.43;;;;;;;;;;5051736;28;20204;-87
2023/02/22 05:01:51;;;;;;;13.68;7.72;;;;;;;;;;5052322;28;20284;-87
2023/02/22 05:04:30;;;;;;;10.38;7.25;;;;;;;;;;5052055;28;20299;-86
2023/02/22 05:07:14;;;;;;;12.30;8.85;;;;;;;;;;5052312;28;20255;-87
2023/02/22 05:09:51;;;;;;;10.88;8.63;;;;;;;;;;5051345;28;20202;-87
2023/02/22 05:12:31;;;;;;;9.48;7.90;;;;;;;;;;5052726;28;20231;-87
2023/02/22 05:15:25;;;;;;;10.82;7.95;;;;;;;;;;5056423;28;20814;-86
2023/02/22 05:18:12;;;;;;;10.07;7.53;;;;;;;;;;5054914;28;20237;-86
2023/02/22 05:20:40;;;;;;;8.32;7.05;;;;;;;;;;5053465;28;20209;-86
2023/02/22 05:23:22;;;;;;;10.32;7.13;;;;;;;;;;5054776;28;20265;-87
2023/02/22 05:28:38;;;;;;;7.60;6.50;;;;;;;;;;5049710;28;20230;-86
2023/02/22 05:31:13;;;;;;;7.80;6.72;;;;;;;;;;5052265;28;20200;-86
2023/02/22 05:33:52;;;;;;;8.73;6.78;;;;;;;;;;5052150;28;20221;-88
2023/02/22 05:36:39;;;;;;;8.18;7.38;;;;;;;;;;5052758;28;20233;-86
2023/02/22 05:39:15;;;;;;;7.85;7.05;;;;;;;;;;5052287;28;20308;-87
2023/02/22 05:41:43;;;;;;;8.68;6.38;;;;;;;;;;5055159;28;20197;-84
2023/02/22 05:44:12;;;;;;;8.18;5.95;;;;;;;;;;5057962;28;20248;-84
2023/02/22 05:46:39;;;;;;;10.50;7.32;;;;;;;;;;5057923;28;20296;-83
2023/02/22 05:49:07;;;;;;;8.38;6.78;;;;;;;;;;5055955;28;20232;-84
2023/02/22 05:51:34;;;;;;;9.57;6.78;;;;;;;;;;5058796;28;20305;-83
2023/02/22 05:54:02;;;;;;;9.55;6.65;;;;;;;;;;5058346;28;20667;-82
2023/02/22 05:56:30;;;;;;;9.65;6.50;;;;;;;;;;5056343;28;20296;-83
2023/02/22 05:58:58;;;;;;;8.27;7.10;;;;;;;;;;5055770;28;20796;-83
2023/02/22 06:01:27;;;;;;;7.88;6.32;;;;;;;;;;5056351;28;20248;-83
2023/02/22 06:03:54;;;;;;;8.35;6.88;;;;;;;;;;5056319;28;20334;-83
2023/02/22 06:06:22;;;;;;;7.45;6.63;;;;;;;;;;5056751;28;20345;-84
2023/02/22 06:08:50;;;;;;;8.07;6.38;;;;;;;;;;5055719;28;20312;-83
2023/02/22 06:11:18;;;;;;;7.72;6.75;;;;;;;;;;5057595;28;20210;-84
2023/02/22 06:13:50;;;;;;;10.55;7.10;;;;;;;;;;5056904;28;20604;-82
2023/02/22 06:16:19;;;;;;;7.68;5.95;;;;;;;;;;5057409;28;20939;-83
2023/02/22 06:18:49;;;;;;;5.93;5.32;;;;;;;;;;5055924;28;20226;-83
2023/02/22 06:21:16;;;;;;;6.97;5.70;;;;;;;;;;5057302;28;20210;-82
2023/02/22 06:23:44;;;;;;;8.18;6.20;;;;;;;;;;5056182;28;20205;-82
2023/02/22 06:26:11;;;;;;;6.43;5.78;;;;;;;;;;5059289;28;20300;-83
2023/02/22 06:28:39;;;;;;;6.85;5.60;;;;;;;;;;5056878;28;20343;-82
2023/02/22 06:31:06;;;;;;;6.28;5.60;;;;;;;;;;5059574;28;20198;-84
2023/02/22 06:33:34;;;;;;;7.60;5.85;;;;;;;;;;5059040;28;20304;-83
2023/02/22 06:36:02;;;;;;;6.78;5.68;;;;;;;;;;5057200;28;20309;-82
2023/02/22 06:38:30;;;;;;;7.20;5.68;;;;;;;;;;5057809;28;20221;-83
2023/02/22 06:40:57;;;;;;;7.10;6.40;;;;;;;;;;5057719;28;20217;-83
2023/02/22 06:43:25;;;;;;;6.60;5.90;;;;;;;;;;5058258;28;20229;-82
2023/02/22 06:45:53;;;;;;;6.38;5.65;;;;;;;;;;5057053;28;20296;-84
2023/02/22 06:48:21;;;;;;;8.48;7.07;;;;;;;;;;5057330;28;20230;-82
2023/02/22 06:50:48;;;;;;;6.65;6.03;;;;;;;;;;5059487;28;20260;-81
2023/02/22 06:53:17;;;;;;;6.70;6.05;;;;;;;;;;5058414;28;20320;-83
2023/02/22 06:55:44;;;;;;;7.40;5.90;;;;;;;;;;5057299;28;20205;-82
2023/02/22 06:58:12;;;;;;;8.52;6.45;;;;;;;;;;5055904;28;20645;-83
2023/02/22 07:00:39;;;;;;;7.47;6.78;;;;;;;;;;5056801;28;20292;-82
2023/02/22 07:03:07;;;;;;;6.28;5.68;;;;;;;;;;5058131;28;20244;-82
2023/02/22 07:05:34;;;;;;;9.27;6.18;;;;;;;;;;5057677;28;20637;-82
2023/02/22 07:08:07;;;;;;;8.27;6.45;;;;;;;;;;5056234;28;20288;-82
2023/02/22 07:10:37;;;;;;;6.15;5.53;;;;;;;;;;5055331;28;20201;-84
2023/02/22 07:13:07;;;;;;;6.45;4.95;;;;;;;;;;5055046;28;20228;-82
2023/02/22 07:15:35;;;;;;;5.43;4.88;;;;;;;;;;5056768;28;20580;-82
2023/02/22 07:18:03;;;;;;;5.57;5.07;;;;;;;;;;5057357;28;20232;-84
2023/02/22 07:20:32;;;;;;;6.28;5.10;;;;;;;;;;5056638;28;20581;-82
2023/02/22 07:23:00;;;;;;;5.38;4.88;;;;;;;;;;5056751;28;20202;-83
2023/02/22 07:25:28;;;;;;;5.15;4.65;;;;;;;;;;5060086;28;20284;-83
2023/02/22 07:27:56;;;;;;;5.30;4.78;;;;;;;;;;5059646;28;20312;-83
2023/02/22 07:30:29;;;;;;;5.28;4.78;;;;;;;;;;5058837;28;20201;-84
2023/02/22 07:32:57;;;;;;;6.00;4.97;;;;;;;;;;5056028;28;20229;-82
2023/02/22 07:35:28;;;;;;;7.00;5.35;;;;;;;;;;5056213;28;20203;-83
2023/02/22 07:37:56;;;;;;;7.20;5.93;;;;;;;;;;5057300;28;20231;-85
2023/02/22 07:40:25;;;;;;;5.68;4.72;;;;;;;;;;5056121;28;20201;-84
2023/02/22 07:42:59;;;;;;;5.93;5.30;;;;;;;;;;5056665;28;20208;-84
2023/02/22 07:45:29;;;;;;;5.45;4.95;;;;;;;;;;5054625;28;20229;-86
2023/02/22 07:47:57;;;;;;;5.60;5.10;;;;;;;;;;5055224;28;20887;-84
2023/02/22 07:50:27;;;;;;;5.53;5.03;;;;;;;;;;5055767;28;20201;-85
2023/02/22 07:52:56;;;;;;;6.85;5.57;;;;;;;;;;5056150;28;20205;-83
2023/02/22 07:55:26;;;;;;;5.28;4.78;;;;;;;;;;5054686;28;20285;-85
2023/02/22 07:57:58;;;;;;;7.15;6.35;;;;;;;;;;5054137;28;20232;-87
2023/02/22 08:00:27;;;;;;;6.40;5.80;;;;;;;;;;5054270;28;20216;-86
2023/02/22 08:02:55;;;;;;;6.32;5.63;;;;;;;;;;5054704;28;20662;-84
2023/02/22 08:05:26;;;;;;;6.82;5.75;;;;;;;;;;5055617;28;20292;-84
2023/02/22 08:07:53;;;;;;;5.90;5.22;;;;;;;;;;5054716;28;20221;-85
2023/02/22 08:10:23;;;;;;;7.20;5.25;;;;;;;;;;5056355;28;20749;-84
2023/02/22 08:12:51;;;;;;;6.72;5.93;;;;;;;;;;5054878;28;20205;-85
2023/02/22 08:15:24;;;;;;;5.68;5.00;;;;;;;;;;5054891;28;20198;-83
2023/02/22 08:17:52;;;;;;;6.43;5.13;;;;;;;;;;5055071;28;20235;-83
2023/02/22 08:20:19;;;;;;;7.25;5.60;;;;;;;;;;5054028;28;20209;-85
2023/02/22 08:22:48;;;;;;;7.03;5.50;;;;;;;;;;5054998;28;20565;-84
2023/02/22 08:25:18;;;;;;;6.97;6.00;;;;;;;;;;5055557;28;20231;-84
2023/02/22 08:27:45;;;;;;;5.30;4.80;;;;;;;;;;5054215;28;20313;-84
2023/02/22 08:30:16;;;;;;;7.10;5.05;;;;;;;;;;5052781;28;20210;-84
2023/02/22 08:32:46;;;;;;;7.95;4.88;;;;;;;;;;5053992;28;20720;-84
2023/02/22 08:35:14;;;;;;;5.45;4.90;;;;;;;;;;5053283;28;20232;-85
2023/02/22 08:37:44;;;;;;;6.18;5.43;;;;;;;;;;5053708;28;20304;-83
2023/02/22 08:40:12;;;;;;;5.60;4.85;;;;;;;;;;5052750;28;20216;-84
2023/02/22 08:42:40;;;;;;;6.07;5.22;;;;;;;;;;5053343;28;20190;-85
2023/02/22 08:45:09;;;;;;;6.18;5.53;;;;;;;;;;5053243;28;20222;-84
2023/02/22 08:47:36;;;;;;;7.57;6.13;;;;;;;;;;5052222;28;20221;-84
2023/02/22 08:50:06;;;;;;;5.45;4.95;;;;;;;;;;5052425;28;20664;-82
2023/02/22 08:52:33;;;;;;;8.73;7.68;;;;;;;;;;5052307;28;20197;-84
2023/02/22 08:55:01;;;;;;;8.30;5.82;;;;;;;;;;5052410;28;20262;-84
2023/02/22 08:57:30;;;;;;;6.65;4.97;;;;;;;;;;5053176;28;20222;-84
2023/02/22 08:59:58;;;;;;;6.90;6.20;;;;;;;;;;5052127;28;20626;-83
2023/02/22 09:02:25;;;;;;;9.18;5.75;;;;;;;;;;5053230;28;20225;-84
2023/02/22 09:04:53;;;;;;;8.70;6.35;;;;;;;;;;5053084;28;20308;-84
2023/02/22 09:07:21;;;;;;;6.78;5.95;;;;;;;;;;5051950;28;20697;-84
2023/02/22 09:09:49;;;;;;;6.68;5.97;;;;;;;;;;5051951;28;20236;-85
2023/02/22 09:12:16;;;;;;;7.88;6.57;;;;;;;;;;5052603;28;20295;-83
2023/02/22 09:14:44;;;;;;;5.97;5.38;;;;;;;;;;5052147;28;20227;-85
2023/02/22 09:17:11;;;;;;;8.80;6.35;;;;;;;;;;5050574;28;20236;-85
2023/02/22 09:19:39;;;;;;;6.82;5.45;;;;;;;;;;5051945;28;20597;-84
2023/02/22 09:22:06;;;;;;;8.13;5.95;;;;;;;;;;5052810;28;20201;-84
2023/02/22 09:24:35;;;;;;;6.20;5.60;;;;;;;;;;5052087;28;20316;-83
2023/02/22 09:27:03;;;;;;;8.35;5.60;;;;;;;;;;5051917;28;20210;-83
2023/02/22 09:29:31;;;;;;;7.90;6.05;;;;;;;;;;5050894;28;20737;-82
2023/02/22 09:31:59;;;;;;;6.95;6.13;;;;;;;;;;5051631;28;20203;-83
2023/02/22 09:34:28;;;;;;;7.32;5.35;;;;;;;;;;5051502;28;20332;-83
2023/02/22 09:36:57;;;;;;;5.88;5.18;;;;;;;;;;5051165;28;20670;-84
2023/02/22 09:39:24;;;;;;;5.20;4.70;;;;;;;;;;5049478;28;20670;-84
2023/02/22 09:42:01;;;;;;;6.22;5.63;;;;;;;;;;5048348;28;20321;-83
2023/02/22 09:44:36;;;;;;;7.30;6.07;;;;;;;;;;5050253;28;20289;-84
2023/02/22 09:47:04;;;;;;;6.45;5.82;;;;;;;;;;5056171;28;20215;-84
2023/02/22 09:49:36;;;;;;;8.02;7.10;;;;;;;;;;5070322;28;20284;-84
2023/02/22 09:52:08;;;;;;;7.28;6.57;;;;;;;;;;5070716;28;20197;-83
2023/02/22 09:54:42;;;;;;;5.38;4.88;;;;;;;;;;5071030;28;20220;-85
2023/02/22 09:57:16;;;;;;;5.78;5.18;;;;;;;;;;5070965;28;20205;-85
2023/02/22 09:59:47;;;;;;;7.65;4.85;;;;;;;;;;5073321;28;20588;-85
2023/02/22 10:02:24;;;;;;;5.30;4.72;;;;;;;;;;5071882;28;20300;-84
2023/02/22 10:04:57;;;;;;;7.22;5.93;;;;;;;;;;5055083;28;20610;-85
2023/02/22 10:07:31;;;;;;;6.75;6.05;;;;;;;;;;5055009;28;20236;-84
2023/02/22 10:10:05;;;;;;;6.30;5.32;;;;;;;;;;5054282;28;20256;-84
2023/02/22 10:12:43;;;;;;;7.25;5.28;;;;;;;;;;5054154;28;20200;-84
2023/02/22 10:15:37;;;;;;;5.35;4.28;;;;;;;;;;5052650;28;20229;-84
2023/02/22 10:18:38;;;;;;;3.38;3.10;;;;;;;;;;5030930;28;20300;-84
2023/02/22 10:21:15;;;;;;;3.35;3.05;;;;;;;;;;5034212;28;20591;-84
2023/02/22 10:23:50;;;;;;;4.18;3.78;;;;;;;;;;5034118;28;20292;-84
2023/02/22 10:26:24;;;;;;;4.65;4.03;;;;;;;;;;5034194;28;20263;-85
2023/02/22 10:28:56;;;;;;;5.88;4.80;;;;;;;;;;5033603;28;20230;-85
2023/02/22 10:31:27;;;;;;;4.95;4.45;;;;;;;;;;5033914;28;20580;-85
2023/02/22 10:33:58;;;;;;;6.78;5.63;;;;;;;;;;5050740;28;20599;-86
2023/02/22 10:36:27;;;;;;;5.22;4.72;;;;;;;;;;5051077;28;20226;-86
2023/02/22 10:38:58;;;;;;;6.68;5.45;;;;;;;;;;5052058;28;20222;-85
2023/02/22 10:41:30;;;;;;;5.35;4.80;;;;;;;;;;5053752;28;20213;-87
2023/02/22 10:43:59;;;;;;;5.15;4.68;;;;;;;;;;5054146;28;20200;-85
2023/02/22 10:46:29;;;;;;;6.15;4.80;;;;;;;;;;5053773;28;20210;-86
2023/02/22 10:49:02;;;;;;;4.90;4.25;;;;;;;;;;5052615;28;20225;-85
2023/02/22 10:51:30;;;;;;;6.03;5.43;;;;;;;;;;5053699;28;20205;-86
2023/02/22 10:54:18;;;;;;;4.95;4.45;;;;;;;;;;5053389;28;20225;-86
2023/02/22 10:56:49;;;;;;;4.88;4.18;;;;;;;;;;5054135;28;20253;-86
2023/02/22 10:59:31;;;;;;;4.60;4.20;;;;;;;;;;5052664;28;20304;-85
2023/02/22 11:01:59;;;;;;;5.15;4.65;;;;;;;;;;5053522;28;20537;-85
2023/02/22 11:04:27;;;;;;;5.28;4.78;;;;;;;;;;5053375;28;20638;-85
2023/02/22 11:07:13;;;;;;;5.80;5.30;;;;;;;;;;5053335;28;20197;-85
2023/02/22 11:09:50;;;;;;;4.10;3.70;;;;;;;;;;5051693;28;20209;-85
2023/02/22 11:12:21;;;;;;;4.72;4.13;;;;;;;;;;5053110;28;20296;-85
2023/02/22 11:14:50;;;;;;;4.90;4.40;;;;;;;;;;5053341;28;20206;-85
2023/02/22 11:17:26;;;;;;;5.13;4.63;;;;;;;;;;5053445;28;20226;-85
2023/02/22 11:19:54;;;;;;;6.03;5.20;;;;;;;;;;5051502;28;20201;-86
2023/02/22 11:22:26;;;;;;;7.93;5.00;;;;;;;;;;5052900;28;20308;-85
2023/02/22 11:24:56;;;;;;;4.82;4.32;;;;;;;;;;5053147;28;20260;-85
2023/02/22 11:27:36;;;;;;;6.28;4.25;;;;;;;;;;5053008;28;20225;-86
2023/02/22 11:30:20;;;;;;;6.20;5.43;;;;;;;;;;5052285;28;20205;-86
2023/02/22 11:32:51;;;;;;;4.78;4.32;;;;;;;;;;5052553;28;20205;-85
2023/02/22 11:35:38;;;;;;;5.95;4.75;;;;;;;;;;5052707;28;20228;-86
2023/02/22 11:38:19;;;;;;;4.90;4.40;;;;;;;;;;5052128;28;20220;-85
2023/02/22 11:41:03;;;;;;;5.53;5.03;;;;;;;;;;5052781;28;20252;-86
2023/02/22 11:43:31;;;;;;;5.22;4.72;;;;;;;;;;5052679;28;20312;-87
2023/02/22 11:46:04;;;;;;;4.63;4.10;;;;;;;;;;5052927;28;20205;-86
2023/02/22 11:48:35;;;;;;;3.65;3.35;;;;;;;;;;5051790;28;20221;-85
2023/02/22 11:51:34;;;;;;;3.58;3.25;;;;;;;;;;5052854;28;20201;-85
2023/02/22 11:54:37;;;;;;;7.43;4.68;;;;;;;;;;5052594;28;20208;-85
2023/02/22 11:57:16;;;;;;;6.55;4.95;;;;;;;;;;5052629;28;20229;-86
2023/02/22 11:59:55;;;;;;;4.30;3.90;;;;;;;;;;5051565;28;20291;-87
2023/02/22 12:02:44;;;;;;;3.70;3.40;;;;;;;;;;5052178;28;20575;-87
2023/02/22 12:05:25;;;;;;;4.63;3.45;;;;;;;;;;5052023;28;20666;-86
2023/02/22 12:08:02;;;;;;;3.65;3.35;;;;;;;;;;5051722;28;20316;-86
2023/02/22 12:10:45;;;;;;;3.92;3.53;;;;;;;;;;5051859;28;20194;-87
2023/02/22 12:13:35;;;;;;;3.33;3.03;;;;;;;;;;5052205;28;20286;-86
2023/02/22 12:16:14;;;;;;;3.95;3.50;;;;;;;;;;5051934;28;20229;-85
2023/02/22 12:19:02;;;;;;;4.28;3.75;;;;;;;;;;5051049;28;20257;-86
2023/02/22 12:21:30;;;;;;;4.63;3.53;;;;;;;;;;5051523;28;20236;-86
2023/02/22 12:24:02;;;;;;;4.35;3.92;;;;;;;;;;5051756;28;20228;-85
2023/02/22 12:26:33;;;;;;;5.18;3.85;;;;;;;;;;5053222;28;20272;-85
2023/02/22 12:29:07;;;;;;;4.15;3.75;;;;;;;;;;5052307;28;20289;-88
2023/02/22 12:31:38;;;;;;;3.60;3.17;;;;;;;;;;5052541;28;20292;-86
2023/02/22 12:34:14;;;;;;;3.08;2.85;;;;;;;;;;5052495;28;20285;-85
2023/02/22 12:36:47;;;;;;;3.33;3.03;;;;;;;;;;5052344;28;20218;-86
2023/02/22 12:39:32;;;;;;;3.63;3.03;;;;;;;;;;5051670;28;20312;-85
2023/02/22 12:42:03;;;;;;;3.22;2.92;;;;;;;;;;5052458;28;20198;-85
2023/02/22 12:44:34;;;;;;;3.63;3.33;;;;;;;;;;5052599;28;20206;-85
2023/02/22 12:47:04;;;;;;;3.35;3.05;;;;;;;;;;5051657;28;20205;-85
2023/02/22 12:49:38;;;;;;;3.58;3.22;;;;;;;;;;5052129;28;20216;-87
2023/02/22 12:52:14;;;;;;;3.20;2.90;;;;;;;;;;5052355;28;20633;-85
2023/02/22 12:54:48;;;;;;;3.53;3.22;;;;;;;;;;5052223;28;20208;-85
2023/02/22 12:57:23;;;;;;;3.67;3.33;;;;;;;;;;5052093;28;20229;-84
2023/02/22 12:59:53;;;;;;;2.63;2.45;;;;;;;;;;5051762;28;20220;-86
2023/02/22 13:02:26;;;;;;;2.58;2.38;;;;;;;;;;5052247;28;20292;-84
2023/02/22 13:04:55;;;;;;;3.15;2.85;;;;;;;;;;5051941;28;20642;-85
2023/02/22 13:07:37;;;;;;;2.60;2.40;;;;;;;;;;5052012;28;20214;-84
2023/02/22 13:10:40;;;;;;;3.47;3.17;;;;;;;;;;5051676;28;20923;-85
2023/02/22 13:13:15;;;;;;;2.80;2.60;;;;;;;;;;4995294;28;20288;-85
2023/02/22 13:15:50;;;;;;;5.05;3.35;;;;;;;;;;5045796;28;20288;-84
2023/02/22 13:18:22;;;;;;;3.00;2.75;;;;;;;;;;5054875;28;20216;-84
2023/02/22 13:20:57;;;;;;;4.30;3.03;;;;;;;;;;5054422;28;20216;-85
2023/02/22 13:23:38;;;;;;;3.75;3.33;;;;;;;;;;5056426;28;20195;-85
2023/02/22 13:26:17;;;;;;;3.33;3.10;;;;;;;;;;5052659;28;20205;-85
2023/02/22 13:28:49;;;;;;;3.70;3.35;;;;;;;;;;5052134;28;20228;-85
2023/02/22 13:31:33;;;;;;;4.57;3.50;;;;;;;;;;5051711;28;20201;-84
2023/02/22 13:34:50;;;;;;;3.47;3.17;;;;;;;;;;5052012;28;20209;-85
2023/02/22 13:37:37;;;;;;;3.20;2.90;;;;;;;;;;5052987;28;20616;-85
2023/02/22 13:40:46;;;;;;;4.05;3.10;;;;;;;;;;5052302;28;20634;-85
2023/02/22 13:43:54;;;;;;;3.15;2.85;;;;;;;;;;5051528;28;20186;-85
2023/02/22 13:47:17;;;;;;;3.70;3.38;;;;;;;;;;5031070;28;20224;-86
2023/02/22 13:50:06;;;;;;;3.17;2.92;;;;;;;;;;5040209;28;20229;-87
2023/02/22 13:52:40;;;;;;;3.40;3.17;;;;;;;;;;5052022;28;20225;-86
2023/02/22 13:55:22;;;;;;;4.60;3.88;;;;;;;;;;5050278;28;20685;-86
2023/02/22 14:01:08;;;;;;;3.40;3.10;;;;;;;;;;5032556;28;20190;-86
2023/02/22 14:03:48;;;;;;;4.63;3.88;;;;;;;;;;5050754;28;20201;-86
2023/02/22 14:14:16;;;;;;;3.45;3.15;;;;;;;;;;5043644;28;20204;-86
2023/02/22 14:17:30;;;;;;;2.70;2.45;;;;;;;;;;5050875;28;20217;-86
2023/02/22 14:20:19;;;;;;;3.05;2.55;;;;;;;;;;5029630;28;20206;-86
2023/02/22 14:22:51;;;;;;;2.53;2.33;;;;;;;;;;5053174;28;20318;-86
2023/02/22 14:25:41;;;;;;;3.00;2.65;;;;;;;;;;5050927;28;20194;-86
2023/02/22 14:28:42;;;;;;;2.70;2.50;;;;;;;;;;5050383;28;20626;-86
2023/02/22 14:31:25;;;;;;;2.45;2.25;;;;;;;;;;5050949;28;20217;-86
2023/02/22 14:34:20;;;;;;;2.50;2.30;;;;;;;;;;5050249;28;20210;-86
2023/02/22 14:37:06;;;;;;;2.10;2.00;;;;;;;;;;5050851;28;20635;-86
2023/02/22 14:39:37;;;;;;;2.72;1.70;;;;;;;;;;5050754;28;20642;-86
2023/02/22 14:42:13;;;;;;;1.98;1.88;;;;;;;;;;5051146;28;20323;-86
2023/02/22 14:44:53;;;;;;;2.40;2.00;;;;;;;;;;5051254;28;20202;-86
2023/02/22 14:47:27;;;;;;;4.45;2.00;;;;;;;;;;5054922;28;20229;-86
2023/02/22 14:50:13;;;;;;;1.70;1.60;;;;;;;;;;5054153;28;20232;-86
2023/02/22 14:53:03;;;;;;;1.70;1.60;;;;;;;;;;5053980;28;20227;-86
2023/02/22 14:55:41;;;;;;;1.63;1.52;;;;;;;;;;5053925;28;20783;-86
2023/02/22 14:58:21;;;;;;;1.50;1.40;;;;;;;;;;5053158;28;20225;-85
2023/02/22 15:00:59;;;;;;;1.83;1.73;;;;;;;;;;5054005;28;20212;-86
2023/02/22 15:03:36;;;;;;;1.90;1.77;;;;;;;;;;5054098;28;20562;-85
2023/02/22 15:06:13;;;;;;;1.25;1.25;;;;;;;;;;5054013;28;20209;-85
2023/02/22 15:08:47;;;;;;;1.60;1.50;;;;;;;;;;5053428;28;20228;-86
2023/02/22 15:11:25;;;;;;;1.98;1.80;;;;;;;;;;5053985;28;20618;-86
2023/02/22 15:13:59;;;;;;;1.90;1.80;;;;;;;;;;5053751;28;20204;-86
2023/02/22 15:16:30;;;;;;;2.33;2.13;;;;;;;;;;5053513;28;20201;-86
2023/02/22 15:19:00;;;;;;;1.85;1.75;;;;;;;;;;5075486;23;20304;-86
2023/02/22 15:21:29;;;;;;;1.63;1.52;;;;;;;;;;5054336;28;20261;-86
2023/02/22 15:23:58;;;;;;;1.80;1.70;;;;;;;;;;5054554;28;20706;-86
2023/02/22 15:26:33;;;;;;;1.67;1.58;;;;;;;;;;5054332;28;20276;-86
2023/02/22 15:29:07;;;;;;;1.83;1.73;;;;;;;;;;5054771;28;20192;-84
2023/02/22 15:31:37;;;;;;;1.70;1.60;;;;;;;;;;5054442;28;20190;-87
2023/02/22 15:34:23;;;;;;;1.80;1.70;;;;;;;;;;5054829;28;20217;-87
2023/02/22 15:36:53;;;;;;;1.70;1.48;;;;;;;;;;5054349;28;20248;-86
2023/02/22 15:39:25;;;;;;;1.42;1.33;;;;;;;;;;5053863;28;20309;-86
2023/02/22 15:42:09;;;;;;;2.13;1.77;;;;;;;;;;5054342;28;20190;-87
2023/02/22 15:44:40;;;;;;;1.58;1.48;;;;;;;;;;5054550;28;20188;-86
2023/02/22 15:47:09;;;;;;;1.70;1.60;;;;;;;;;;5054422;28;20249;-86